Terminal Aerodrome Forecast
Issued by NWS

Home | Current Version | Previous Version | Text Only | Print | Product List | Glossary On
Versions: 1 2 3 4 5 6 7 8 9 10 11 12 13 14 15 16 17 18
000
FTUS46 KPDT 181800 AAA
TAFYKM
TAF AMD
KYKM 181807Z 1818/1918 00000KT 5SM BR OVC013
     FM182000 10004KT P6SM BKN011 OVC040
     FM190200 27004KT 4SM -RA BR BKN008 OVC011
     FM190600 26003KT 1SM -RA BR OVC004
      TEMPO 1907/1911 1/4SM FG OVC001
     FM191100 VRB02KT 1/4SM FG VV001=

USA.gov is the U.S. government's official web portal to all federal, state and local government web resources and services.